createdAt,value
2019-05-14T00:00:48.819Z,100265.52
2019-05-14T00:03:31.148Z,100265.19
2019-05-14T00:05:58.023Z,100268.86
2019-05-14T00:08:24.906Z,100268.59
2019-05-14T00:10:52.585Z,100263.83
2019-05-14T00:13:21.333Z,100264.53
2019-05-14T00:15:48.057Z,100255.86
2019-05-14T00:18:15.061Z,100255.25
2019-05-14T00:20:42.109Z,100255.39
2019-05-14T00:23:09.157Z,100253.03
2019-05-14T00:25:35.936Z,100249.66
2019-05-14T00:28:02.798Z,100242.47
2019-05-14T00:30:31.662Z,100248.13
2019-05-14T00:32:58.252Z,100245.36
2019-05-14T00:35:25.589Z,100242.00
2019-05-14T00:37:52.463Z,100237.55
2019-05-14T00:40:21.894Z,100231.28
2019-05-14T00:42:48.388Z,100232.84
2019-05-14T00:45:15.871Z,100224.50
2019-05-14T00:47:42.610Z,100225.05
2019-05-14T00:50:11.228Z,100226.45
2019-05-14T00:52:38.311Z,100226.05
2019-05-14T00:55:07.082Z,100224.25
2019-05-14T00:57:34.169Z,100224.34
2019-05-14T01:00:01.250Z,100226.83
2019-05-14T01:02:28.580Z,100225.31
2019-05-14T01:04:55.475Z,100227.27
2019-05-14T01:07:22.231Z,100230.73
2019-05-14T01:09:49.201Z,100231.14
2019-05-14T01:12:16.007Z,100228.47
2019-05-14T01:14:43.105Z,100230.32
2019-05-14T01:17:11.244Z,100227.55
2019-05-14T01:19:38.371Z,100223.89
2019-05-14T01:22:05.482Z,100224.03
2019-05-14T01:24:32.403Z,100217.69
2019-05-14T01:27:01.596Z,100206.97
2019-05-14T01:29:31.462Z,100210.34
2019-05-14T01:31:57.837Z,100210.22
2019-05-14T01:34:24.584Z,100207.36
2019-05-14T01:36:52.967Z,100202.34
2019-05-14T01:39:21.327Z,100197.44
2019-05-14T01:41:48.588Z,100198.79
2019-05-14T01:44:15.329Z,100194.63
2019-05-14T01:46:42.251Z,100191.74
2019-05-14T01:49:09.043Z,100193.34
2019-05-14T01:51:36.125Z,100188.09
2019-05-14T01:54:03.353Z,100194.87
2019-05-14T01:56:31.883Z,100189.27
2019-05-14T01:58:58.968Z,100194.09
2019-05-14T02:01:26.163Z,100182.66
2019-05-14T02:03:52.928Z,100186.56
2019-05-14T02:06:21.284Z,100182.50
2019-05-14T02:08:48.324Z,100180.00
2019-05-14T02:11:15.058Z,100185.84
2019-05-14T02:13:44.228Z,100180.80
2019-05-14T02:16:13.022Z,100177.44
2019-05-14T02:18:41.645Z,100171.17
2019-05-14T02:21:08.857Z,100173.29
2019-05-14T02:23:36.103Z,100176.28
2019-05-14T02:26:03.572Z,100167.33
2019-05-14T02:28:31.524Z,100167.41
2019-05-14T02:31:03.130Z,100168.14
2019-05-14T02:33:30.637Z,100165.05
2019-05-14T02:35:59.996Z,100166.04
2019-05-14T02:38:29.643Z,100166.89
2019-05-14T02:40:55.530Z,100165.34
2019-05-14T02:43:22.277Z,100161.69
2019-05-14T02:46:02.148Z,100161.23
2019-05-14T02:48:20.221Z,100162.25
2019-05-14T02:50:49.406Z,100160.37
2019-05-14T02:53:15.690Z,100156.05
2019-05-14T02:55:42.986Z,100158.58
2019-05-14T02:58:10.157Z,100161.20
2019-05-14T03:00:40.423Z,100163.43
2019-05-14T03:03:05.932Z,100168.48
2019-05-14T03:05:32.875Z,100169.32
2019-05-14T03:08:00.239Z,100173.57
2019-05-14T03:10:30.267Z,100172.44
2019-05-14T03:12:59.063Z,100177.79
2019-05-14T03:15:28.888Z,100181.31
2019-05-14T03:17:54.774Z,100182.14
2019-05-14T03:20:22.059Z,100183.20
2019-05-14T03:23:01.789Z,100188.67
2019-05-14T03:25:19.337Z,100181.72
2019-05-14T03:27:49.594Z,100189.41
2019-05-14T03:30:15.744Z,100180.34
2019-05-14T03:32:43.412Z,100174.18
2019-05-14T03:35:13.754Z,100180.16
2019-05-14T03:37:39.762Z,100169.95
2019-05-14T03:40:09.263Z,100175.24
2019-05-14T03:42:39.642Z,100175.03
2019-05-14T03:45:08.447Z,100169.87
2019-05-14T03:47:34.901Z,100174.80
2019-05-14T03:50:02.321Z,100170.55
2019-05-14T03:52:29.630Z,100172.53
2019-05-14T03:55:01.154Z,100173.15
2019-05-14T03:57:25.515Z,100166.58
2019-05-14T03:59:52.574Z,100162.70
2019-05-14T04:02:20.069Z,100165.48
2019-05-14T04:04:50.246Z,100165.69
2019-05-14T04:07:19.570Z,100159.95
2019-05-14T04:09:49.656Z,100160.09
2019-05-14T04:12:19.597Z,100164.28
2019-05-14T04:14:50.687Z,100152.70
2019-05-14T04:17:32.442Z,100151.75
2019-05-14T04:19:53.942Z,100150.62
2019-05-14T04:22:22.426Z,100157.27
2019-05-14T04:24:53.844Z,100144.80
2019-05-14T04:27:23.540Z,100149.36
2019-05-14T04:29:52.536Z,100140.56
2019-05-14T04:32:20.240Z,100143.39
2019-05-14T04:34:53.247Z,100147.72
2019-05-14T04:37:20.590Z,100140.86
2019-05-14T04:39:50.322Z,100142.26
2019-05-14T04:42:20.036Z,100139.67
2019-05-14T04:44:45.656Z,100140.92
2019-05-14T04:47:27.617Z,100150.26
2019-05-14T04:49:41.789Z,100143.84
2019-05-14T04:52:10.068Z,100141.51
2019-05-14T04:54:39.386Z,100142.95
2019-05-14T04:57:09.861Z,100135.48
2019-05-14T04:59:35.416Z,100140.26
2019-05-14T05:02:02.854Z,100137.12
2019-05-14T05:04:30.339Z,100133.25
2019-05-14T05:06:59.234Z,100133.70
2019-05-14T05:09:29.061Z,100134.66
2019-05-14T05:11:54.870Z,100136.98
2019-05-14T05:14:23.794Z,100135.63
2019-05-14T05:16:50.321Z,100137.16
2019-05-14T05:19:19.578Z,100133.27
2019-05-14T05:21:47.983Z,100130.77
2019-05-14T05:24:14.434Z,100126.70
2019-05-14T05:26:41.230Z,100122.72
2019-05-14T05:29:10.488Z,100130.16
2019-05-14T05:31:38.122Z,100128.56
2019-05-14T05:34:05.247Z,100136.97
2019-05-14T05:36:32.465Z,100133.65
2019-05-14T05:38:59.585Z,100133.44
2019-05-14T05:41:28.250Z,100134.73
2019-05-14T05:43:55.358Z,100132.63
2019-05-14T05:46:22.262Z,100141.34
2019-05-14T05:48:49.015Z,100137.31
2019-05-14T05:51:18.415Z,100130.73
2019-05-14T05:53:44.542Z,100131.75
2019-05-14T05:56:11.429Z,100133.95
2019-05-14T05:58:39.765Z,100120.06
2019-05-14T06:01:09.718Z,100117.91
2019-05-14T06:03:35.733Z,100114.15
2019-05-14T06:06:03.796Z,100108.45
2019-05-14T06:08:30.729Z,100103.95
2019-05-14T06:10:59.185Z,100098.66
2019-05-14T06:13:28.535Z,100094.84
2019-05-14T06:15:54.964Z,100094.57
2019-05-14T06:18:22.376Z,100091.53
2019-05-14T06:20:49.546Z,100094.48
2019-05-14T06:23:18.889Z,100088.75
2019-05-14T06:25:48.888Z,100085.84
2019-05-14T06:28:14.678Z,100081.83
2019-05-14T06:30:41.685Z,100078.64
2019-05-14T06:33:09.349Z,100083.30
2019-05-14T06:35:39.371Z,100087.23
2019-05-14T06:38:05.597Z,100084.39
2019-05-14T06:40:32.768Z,100093.41
2019-05-14T06:42:59.984Z,100091.30
2019-05-14T06:45:29.185Z,100087.30
2019-05-14T06:47:56.169Z,100096.31
2019-05-14T06:50:22.926Z,100099.09
2019-05-14T06:52:49.695Z,100102.42
2019-05-14T06:55:18.059Z,100097.60
2019-05-14T06:57:45.365Z,100095.25
2019-05-14T07:00:13.120Z,100092.86
2019-05-14T07:02:43.477Z,100093.17
2019-05-14T07:05:09.001Z,100091.55
2019-05-14T07:07:36.106Z,100087.52
2019-05-14T07:10:08.774Z,100077.83
2019-05-14T07:12:35.079Z,100082.77
2019-05-14T07:15:03.528Z,100077.37
2019-05-14T07:17:30.745Z,100075.25
2019-05-14T07:19:58.227Z,100079.62
2019-05-14T07:22:25.417Z,100078.05
2019-05-14T07:24:52.343Z,100076.21
2019-05-14T07:27:19.431Z,100070.31
2019-05-14T07:29:48.994Z,100069.80
2019-05-14T07:32:15.364Z,100069.84
2019-05-14T07:34:43.452Z,100076.12
2019-05-14T07:37:10.238Z,100068.83
2019-05-14T07:39:38.562Z,100071.32
2019-05-14T07:42:09.352Z,100070.78
2019-05-14T07:44:35.655Z,100062.94
2019-05-14T07:47:02.748Z,100062.95
2019-05-14T07:49:29.522Z,100055.89
2019-05-14T07:51:58.587Z,100059.69
2019-05-14T07:54:25.082Z,100062.11
2019-05-14T07:56:53.040Z,100056.16
2019-05-14T07:59:20.221Z,100062.66
2019-05-14T08:01:49.068Z,100050.14
2019-05-14T08:04:19.767Z,100046.87
2019-05-14T08:06:44.528Z,100047.91
2019-05-14T08:09:11.762Z,100043.83
2019-05-14T08:11:39.008Z,100041.94
2019-05-14T08:14:05.877Z,100044.61
2019-05-14T08:16:32.830Z,100044.88
2019-05-14T08:19:00.260Z,100040.51
2019-05-14T08:21:28.360Z,100041.58
2019-05-14T08:23:59.365Z,100033.08
2019-05-14T08:26:26.300Z,100027.84
2019-05-14T08:28:53.554Z,100033.23
2019-05-14T08:31:20.437Z,100030.98
2019-05-14T08:33:48.854Z,100019.86
2019-05-14T08:36:18.416Z,100025.27
2019-05-14T08:38:46.620Z,100027.30
2019-05-14T08:41:15.473Z,100023.36
2019-05-14T08:43:42.707Z,100022.23
2019-05-14T08:46:09.459Z,100024.42
2019-05-14T08:48:38.787Z,100019.11
2019-05-14T08:51:05.089Z,100020.35
2019-05-14T08:53:31.971Z,100021.89
2019-05-14T08:55:59.370Z,100019.20
2019-05-14T08:58:27.458Z,100008.36
2019-05-14T09:00:55.245Z,100015.16
2019-05-14T09:03:22.056Z,100008.03
2019-05-14T09:05:49.422Z,100013.71
2019-05-14T09:08:18.973Z,100013.13
2019-05-14T09:10:45.337Z,100006.84
2019-05-14T09:13:12.551Z,99993.50
2019-05-14T09:15:39.713Z,99997.59
2019-05-14T09:18:11.290Z,99993.32
2019-05-14T09:20:35.301Z,99987.63
2019-05-14T09:23:02.292Z,99982.91
2019-05-14T09:25:29.327Z,99988.63
2019-05-14T09:27:58.625Z,99983.67
2019-05-14T09:30:25.474Z,99979.35
2019-05-14T09:32:52.354Z,99975.85
2019-05-14T09:35:20.033Z,99981.75
2019-05-14T09:37:50.974Z,99991.33
2019-05-14T09:40:16.057Z,99987.85
2019-05-14T09:42:43.189Z,99979.66
2019-05-14T09:45:11.595Z,99977.67
2019-05-14T09:47:39.182Z,99978.56
2019-05-14T09:50:16.377Z,99977.86
2019-05-14T09:52:39.137Z,99971.42
2019-05-14T09:55:06.293Z,99975.58
2019-05-14T09:57:33.188Z,99977.62
2019-05-14T09:59:59.971Z,99977.27
2019-05-14T10:02:26.758Z,99967.88
2019-05-14T10:04:54.181Z,99968.77
2019-05-14T10:07:20.934Z,99962.91
2019-05-14T10:09:49.254Z,99965.68
2019-05-14T10:12:16.543Z,99960.53
2019-05-14T10:14:43.357Z,99971.49
2019-05-14T10:17:10.446Z,99977.27
2019-05-14T10:19:39.257Z,99974.27
2019-05-14T10:22:08.278Z,99967.23
2019-05-14T10:24:38.372Z,99971.34
2019-05-14T10:27:08.990Z,99968.83
2019-05-14T10:29:35.916Z,99963.92
2019-05-14T10:32:02.975Z,99960.80
2019-05-14T10:34:29.988Z,99965.09
2019-05-14T10:36:59.065Z,99966.78
2019-05-14T10:39:25.989Z,99963.53
2019-05-14T10:41:52.767Z,99961.69
2019-05-14T10:44:19.618Z,99953.70
2019-05-14T10:46:46.874Z,99950.79
2019-05-14T10:49:23.028Z,99960.70
2019-05-14T10:51:43.151Z,99954.89
2019-05-14T10:54:21.007Z,99945.04
2019-05-14T10:56:39.655Z,99945.86
2019-05-14T10:59:09.310Z,99950.30
2019-05-14T11:01:35.539Z,99936.98
2019-05-14T11:04:02.848Z,99947.77
2019-05-14T11:06:30.219Z,99942.90
2019-05-14T11:08:57.092Z,99943.88
2019-05-14T11:11:26.293Z,99940.59
2019-05-14T11:13:54.105Z,99933.94
2019-05-14T11:16:24.648Z,99921.23
2019-05-14T11:18:51.851Z,99909.26
2019-05-14T11:21:26.028Z,99915.28
2019-05-14T11:23:49.032Z,99928.24
2019-05-14T11:26:18.485Z,99928.67
2019-05-14T11:28:45.734Z,99910.27
2019-05-14T11:31:13.062Z,99915.61
2019-05-14T11:33:39.913Z,99916.06
2019-05-14T11:36:09.378Z,99909.67
2019-05-14T11:38:37.412Z,99907.86
2019-05-14T11:41:05.127Z,99911.52
2019-05-14T11:43:32.353Z,99904.37
2019-05-14T11:45:59.541Z,99911.14
2019-05-14T11:48:26.380Z,99891.38
2019-05-14T11:50:53.640Z,99909.17
2019-05-14T11:53:20.802Z,99900.11
2019-05-14T11:55:50.292Z,99905.50
2019-05-14T11:58:20.679Z,99899.77
2019-05-14T12:00:47.746Z,99889.26
2019-05-14T12:03:15.500Z,99893.02
2019-05-14T12:05:42.659Z,99902.69
2019-05-14T12:08:09.536Z,99889.98
2019-05-14T12:10:38.676Z,99893.69
2019-05-14T12:13:08.387Z,99892.18
2019-05-14T12:15:35.061Z,99887.09
2019-05-14T12:18:02.046Z,99881.66
2019-05-14T12:20:29.776Z,99880.17
2019-05-14T12:22:59.320Z,99888.73
2019-05-14T12:25:29.197Z,99891.67
2019-05-14T12:27:58.717Z,99883.64
2019-05-14T12:30:25.457Z,99884.08
2019-05-14T12:32:54.139Z,99871.55
2019-05-14T12:35:21.913Z,99880.55
2019-05-14T12:37:52.355Z,99877.22
2019-05-14T12:40:20.097Z,99877.99
2019-05-14T12:42:49.647Z,99872.79
2019-05-14T12:45:19.127Z,99866.30
2019-05-14T12:47:49.833Z,99864.64
2019-05-14T12:50:15.348Z,99863.27
2019-05-14T12:52:42.765Z,99868.45
2019-05-14T12:55:10.433Z,99865.93
2019-05-14T12:57:39.396Z,99860.97
2019-05-14T13:00:08.982Z,99870.20
2019-05-14T13:02:36.165Z,99856.45
2019-05-14T13:05:09.046Z,99852.56
2019-05-14T13:07:36.432Z,99856.16
2019-05-14T13:10:09.168Z,99848.15
2019-05-14T13:12:35.758Z,99843.53
2019-05-14T13:15:05.074Z,99837.11
2019-05-14T13:17:31.861Z,99842.48
2019-05-14T13:19:59.080Z,99836.31
2019-05-14T13:22:41.587Z,99841.37
2019-05-14T13:24:54.773Z,99836.34
2019-05-14T13:27:21.723Z,99843.08
2019-05-14T13:29:49.114Z,99834.31
2019-05-14T13:32:16.186Z,99819.67
2019-05-14T13:34:48.642Z,99831.06
2019-05-14T13:37:20.681Z,99820.27
2019-05-14T13:39:52.748Z,99821.98
2019-05-14T13:42:18.658Z,99821.30
2019-05-14T13:44:46.189Z,99821.08
2019-05-14T13:47:13.009Z,99806.17
2019-05-14T13:49:39.885Z,99806.80
2019-05-14T13:52:09.121Z,99808.38
2019-05-14T13:54:35.735Z,99814.20
2019-05-14T13:57:02.713Z,99804.72
2019-05-14T13:59:29.506Z,99797.33
2019-05-14T14:01:59.144Z,99790.96
2019-05-14T14:04:25.557Z,99783.16
2019-05-14T14:06:54.960Z,99778.16
2019-05-14T14:09:22.959Z,99786.16
2019-05-14T14:11:49.790Z,99797.41
2019-05-14T14:14:19.921Z,99798.13
2019-05-14T14:16:49.198Z,99794.66
2019-05-14T14:19:18.620Z,99798.00
2019-05-14T14:21:45.177Z,99788.97
2019-05-14T14:24:12.122Z,99788.22
2019-05-14T14:26:39.479Z,99778.34
2019-05-14T14:29:09.917Z,99778.71
2019-05-14T14:31:41.434Z,99772.64
2019-05-14T14:34:08.917Z,99774.20
2019-05-14T14:36:38.655Z,99762.91
2019-05-14T14:39:06.289Z,99761.98
2019-05-14T14:41:33.712Z,99756.89
2019-05-14T14:44:00.613Z,99763.42
2019-05-14T14:46:28.711Z,99761.26
2019-05-14T14:48:58.950Z,99766.59
2019-05-14T14:51:31.026Z,99761.12
2019-05-14T14:54:02.591Z,99772.58
2019-05-14T14:56:28.387Z,99778.45
2019-05-14T14:58:55.367Z,99779.80
2019-05-14T15:01:22.145Z,99771.15
2019-05-14T15:03:50.085Z,99767.33
2019-05-14T15:06:17.517Z,99752.30
2019-05-14T15:08:44.297Z,99748.91
2019-05-14T15:11:11.397Z,99740.98
2019-05-14T15:13:39.051Z,99743.36
2019-05-14T15:16:12.729Z,99742.65
2019-05-14T15:18:38.495Z,99748.89
2019-05-14T15:21:04.395Z,99741.59
2019-05-14T15:23:31.988Z,99735.28
2019-05-14T15:25:59.080Z,99746.39
2019-05-14T15:28:26.074Z,99750.94
2019-05-14T15:30:52.915Z,99741.33
2019-05-14T15:33:20.276Z,99746.53
2019-05-14T15:35:52.855Z,99742.75
2019-05-14T15:38:20.269Z,99751.97
2019-05-14T15:40:48.823Z,99738.17
2019-05-14T15:43:19.218Z,99734.83
2019-05-14T15:45:48.408Z,99731.17
2019-05-14T15:48:15.485Z,99735.80
2019-05-14T15:50:42.748Z,99730.61
2019-05-14T15:53:11.270Z,99716.88
2019-05-14T15:55:38.553Z,99711.95
2019-05-14T15:58:05.306Z,99729.59
2019-05-14T16:00:32.955Z,99722.22
2019-05-14T16:03:00.377Z,99715.08
2019-05-14T16:05:30.300Z,99713.52
2019-05-14T16:08:00.407Z,99707.92
2019-05-14T16:10:31.089Z,99713.05
2019-05-14T16:12:56.019Z,99713.55
2019-05-14T16:15:23.049Z,99723.38
2019-05-14T16:18:05.917Z,99714.88
2019-05-14T16:20:19.421Z,99709.54
2019-05-14T16:22:46.730Z,99707.30
2019-05-14T16:25:14.525Z,99703.15
2019-05-14T16:27:41.447Z,99696.43
2019-05-14T16:30:10.435Z,99714.13
2019-05-14T16:32:39.389Z,99716.37
2019-05-14T16:35:09.639Z,99724.91
2019-05-14T16:37:38.857Z,99715.12
2019-05-14T16:40:06.928Z,99707.62
2019-05-14T16:42:33.806Z,99703.92
2019-05-14T16:45:00.796Z,99708.94
2019-05-14T16:47:28.621Z,99707.07
2019-05-14T16:49:59.013Z,99705.03
2019-05-14T16:52:25.159Z,99694.84
2019-05-14T16:54:51.967Z,99695.34
2019-05-14T16:57:18.846Z,99694.16
2019-05-14T16:59:45.638Z,99699.96
2019-05-14T17:02:13.905Z,99706.92
2019-05-14T17:04:41.335Z,99708.41
2019-05-14T17:07:09.543Z,99715.11
2019-05-14T17:09:38.463Z,99711.13
2019-05-14T17:12:05.746Z,99711.36
2019-05-14T17:14:32.797Z,99704.75
2019-05-14T17:17:01.333Z,99708.58
2019-05-14T17:19:29.844Z,99704.30
2019-05-14T17:21:59.261Z,99701.89
2019-05-14T17:24:28.889Z,99692.84
2019-05-14T17:26:55.031Z,99698.52
2019-05-14T17:29:22.401Z,99702.86
2019-05-14T17:31:49.520Z,99703.48
2019-05-14T17:34:18.613Z,99708.76
2019-05-14T17:36:48.216Z,99698.08
2019-05-14T17:39:14.759Z,99708.25
2019-05-14T17:41:42.218Z,99704.09
2019-05-14T17:44:09.250Z,99700.83
2019-05-14T17:46:36.370Z,99703.55
2019-05-14T17:49:03.925Z,99692.13
2019-05-14T17:51:30.762Z,99693.88
2019-05-14T17:53:58.669Z,99693.57
2019-05-14T17:56:25.759Z,99687.32
2019-05-14T17:58:52.629Z,99691.77
2019-05-14T18:01:19.664Z,99690.40
2019-05-14T18:03:48.830Z,99687.80
2019-05-14T18:06:18.949Z,99692.23
2019-05-14T18:08:46.470Z,99695.31
2019-05-14T18:11:13.413Z,99697.78
2019-05-14T18:13:43.158Z,99694.55
2019-05-14T18:16:10.065Z,99690.55
2019-05-14T18:18:36.889Z,99686.45
2019-05-14T18:21:04.069Z,99682.05
2019-05-14T18:23:31.287Z,99690.92
2019-05-14T18:26:04.841Z,99691.23
2019-05-14T18:28:28.833Z,99691.06
2019-05-14T18:30:58.571Z,99694.90
2019-05-14T18:33:24.958Z,99695.77
2019-05-14T18:35:52.193Z,99695.52
2019-05-14T18:38:19.544Z,99699.09
2019-05-14T18:40:49.541Z,99693.17
2019-05-14T18:43:18.727Z,99691.64
2019-05-14T18:45:47.957Z,99696.39
2019-05-14T18:48:14.748Z,99692.15
2019-05-14T18:50:41.540Z,99695.77
2019-05-14T18:53:12.756Z,99694.36
2019-05-14T18:55:38.614Z,99692.12
2019-05-14T18:58:05.757Z,99700.50
2019-05-14T19:00:35.758Z,99696.83
2019-05-14T19:03:02.890Z,99699.95
2019-05-14T19:05:29.900Z,99695.23
2019-05-14T19:07:59.263Z,99698.59
2019-05-14T19:10:28.696Z,99689.59
2019-05-14T19:12:55.600Z,99689.71
2019-05-14T19:15:22.625Z,99695.55
2019-05-14T19:17:49.435Z,99694.50
2019-05-14T19:20:19.072Z,99697.50
2019-05-14T19:22:45.671Z,99700.88
2019-05-14T19:25:13.218Z,99702.03
2019-05-14T19:27:40.026Z,99701.83
2019-05-14T19:30:08.446Z,99701.89
2019-05-14T19:32:35.690Z,99704.66
2019-05-14T19:35:08.644Z,99699.54
2019-05-14T19:37:38.781Z,99707.33
2019-05-14T19:40:09.233Z,99706.80
2019-05-14T19:42:39.051Z,99705.03
2019-05-14T19:45:08.505Z,99708.06
2019-05-14T19:47:36.596Z,99709.27
2019-05-14T19:50:08.874Z,99709.59
2019-05-14T19:52:35.363Z,99712.73
2019-05-14T19:55:05.373Z,99709.27
2019-05-14T19:57:32.421Z,99711.34
2019-05-14T19:59:59.275Z,99714.41
2019-05-14T20:02:28.514Z,99715.56
2019-05-14T20:04:55.582Z,99718.31
2019-05-14T20:07:22.391Z,99719.73
2019-05-14T20:09:49.253Z,99712.73
2019-05-14T20:12:18.219Z,99721.47
2019-05-14T20:14:48.844Z,99723.13
2019-05-14T20:17:15.536Z,99714.45
2019-05-14T20:19:42.813Z,99716.47
2019-05-14T20:22:09.818Z,99725.47
2019-05-14T20:24:41.178Z,99716.52
2019-05-14T20:27:09.306Z,99717.34
2019-05-14T20:29:34.542Z,99713.55
2019-05-14T20:32:02.030Z,99713.54
2019-05-14T20:34:29.486Z,99712.73
2019-05-14T20:36:56.254Z,99709.48
2019-05-14T20:39:23.131Z,99720.31
2019-05-14T20:41:50.026Z,99708.66
2019-05-14T20:44:18.970Z,99709.49
2019-05-14T20:46:45.728Z,99718.69
2019-05-14T20:49:12.531Z,99712.72
2019-05-14T20:51:39.269Z,99715.17
2019-05-14T20:54:08.768Z,99716.78
2019-05-14T20:56:35.541Z,99718.11
2019-05-14T20:59:02.444Z,99717.31
2019-05-14T21:01:29.319Z,99720.29
2019-05-14T21:03:56.335Z,99715.64
2019-05-14T21:06:23.340Z,99721.39
2019-05-14T21:08:50.533Z,99723.02
2019-05-14T21:11:19.085Z,99722.75
2019-05-14T21:13:50.061Z,99720.25
2019-05-14T21:16:18.309Z,99721.33
2019-05-14T21:18:45.208Z,99719.45
2019-05-14T21:21:12.717Z,99720.84
2019-05-14T21:23:39.645Z,99728.42
2019-05-14T21:26:08.430Z,99728.14
2019-05-14T21:28:35.350Z,99728.97
2019-05-14T21:31:02.858Z,99723.00
2019-05-14T21:33:30.424Z,99723.25
2019-05-14T21:35:59.258Z,99719.98
2019-05-14T21:38:28.552Z,99719.98
2019-05-14T21:40:55.275Z,99724.00
2019-05-14T21:43:22.827Z,99718.31
2019-05-14T21:45:49.905Z,99716.42
2019-05-14T21:48:19.615Z,99716.16
2019-05-14T21:50:45.564Z,99715.86
2019-05-14T21:53:12.988Z,99716.17
2019-05-14T21:55:40.341Z,99718.30
2019-05-14T21:58:09.087Z,99722.33
2019-05-14T22:00:42.645Z,99715.53
2019-05-14T22:03:10.477Z,99709.74
2019-05-14T22:05:39.333Z,99712.61
2019-05-14T22:08:08.656Z,99720.01
2019-05-14T22:10:35.659Z,99712.89
2019-05-14T22:13:02.814Z,99708.23
2019-05-14T22:15:29.948Z,99718.84
2019-05-14T22:17:58.746Z,99722.88
2019-05-14T22:20:25.731Z,99718.18
2019-05-14T22:22:52.648Z,99714.41
2019-05-14T22:25:19.468Z,99708.17
2019-05-14T22:27:48.338Z,99709.28
2019-05-14T22:30:18.284Z,99703.77
2019-05-14T22:32:44.943Z,99708.29
2019-05-14T22:35:12.150Z,99712.75
2019-05-14T22:37:39.422Z,99710.36
2019-05-14T22:40:09.801Z,99702.25
2019-05-14T22:42:39.038Z,99701.42
2019-05-14T22:45:09.150Z,99698.72
2019-05-14T22:47:39.973Z,99692.47
2019-05-14T22:50:08.911Z,99693.16
2019-05-14T22:52:38.596Z,99691.09
2019-05-14T22:55:05.683Z,99688.77
2019-05-14T22:57:32.577Z,99686.56
2019-05-14T22:59:59.955Z,99683.81
2019-05-14T23:02:28.455Z,99684.45
2019-05-14T23:04:55.914Z,99677.88
2019-05-14T23:07:22.716Z,99686.14
2019-05-14T23:09:49.501Z,99685.86
2019-05-14T23:12:16.789Z,99684.28
2019-05-14T23:14:43.707Z,99689.27
2019-05-14T23:17:10.506Z,99688.55
2019-05-14T23:19:37.290Z,99687.77
2019-05-14T23:22:04.535Z,99693.14
2019-05-14T23:24:31.330Z,99691.46
2019-05-14T23:26:58.608Z,99688.81
2019-05-14T23:29:25.435Z,99683.38
2019-05-14T23:31:52.251Z,99678.48
2019-05-14T23:34:19.124Z,99680.36
2019-05-14T23:36:48.174Z,99685.91
2019-05-14T23:39:15.856Z,99678.33
2019-05-14T23:41:43.508Z,99672.98
2019-05-14T23:44:10.450Z,99673.59
2019-05-14T23:46:37.655Z,99666.92
2019-05-14T23:49:04.481Z,99664.38
2019-05-14T23:51:31.267Z,99663.25
2019-05-14T23:53:58.321Z,99662.27
2019-05-14T23:56:25.134Z,99659.49
2019-05-14T23:58:57.723Z,99653.92
